Time;durP1;ratioP1;P1;durP2;ratioP2;P2;SDS_P1;SDS_P2;PMS_P1;PMS_P2;Temp;Humidity;BMP_temperature;BMP_pressure;BME280_temperature;BME280_humidity;BME280_pressure;Samples;Min_cycle;Max_cycle;Signal;HPM_P1;HPM_P2
2022/10/11 00:00:42;;;;;;;12.75;2.20;;;9.80;99.90;;;;;;5030487;28;20556;-62
2022/10/11 00:03:10;;;;;;;10.73;2.30;;;9.80;99.90;;;;;;5067246;28;20232;-62
2022/10/11 00:05:37;;;;;;;6.63;2.42;;;9.80;99.90;;;;;;5061258;28;20196;-62
2022/10/11 00:08:05;;;;;;;11.77;2.40;;;9.70;99.90;;;;;;5062257;28;20204;-62
2022/10/11 00:10:32;;;;;;;3.92;1.75;;;9.70;99.90;;;;;;5047703;28;20286;-62
2022/10/11 00:12:59;;;;;;;9.20;2.70;;;9.70;99.90;;;;;;5046098;28;20208;-62
2022/10/11 00:15:26;;;;;;;9.97;1.97;;;9.70;99.90;;;;;;5068905;28;20224;-62
2022/10/11 00:17:53;;;;;;;8.83;1.73;;;9.70;99.90;;;;;;5050079;28;20211;-62
2022/10/11 00:20:21;;;;;;;5.43;1.63;;;9.70;99.90;;;;;;5060432;28;20235;-61
2022/10/11 00:22:48;;;;;;;9.60;2.10;;;9.70;99.90;;;;;;5042996;28;20207;-62
2022/10/11 00:25:16;;;;;;;11.88;2.40;;;9.70;99.90;;;;;;5056917;28;20723;-62
2022/10/11 00:27:43;;;;;;;9.93;2.45;;;9.80;99.90;;;;;;5024902;28;20214;-62
2022/10/11 00:30:11;;;;;;;9.05;2.63;;;9.80;99.90;;;;;;5068683;28;20207;-62
2022/10/11 00:32:39;;;;;;;6.25;2.03;;;9.80;99.90;;;;;;5047549;28;20204;-62
2022/10/11 00:35:07;;;;;;;11.98;1.83;;;9.80;99.90;;;;;;5065610;28;20192;-62
2022/10/11 00:37:38;;;;;;;13.90;2.30;;;9.80;99.90;;;;;;5054580;28;20204;-61
2022/10/11 00:40:07;;;;;;;10.97;2.13;;;9.80;99.90;;;;;;5053597;28;20204;-62
2022/10/11 00:42:34;;;;;;;6.65;1.95;;;9.80;99.90;;;;;;5041194;28;20582;-62
2022/10/11 00:45:34;;;;;;;7.80;1.90;;;9.80;99.90;;;;;;5045352;28;20200;-62
2022/10/11 00:48:04;;;;;;;12.45;2.30;;;9.70;99.90;;;;;;5053784;28;20207;-62
2022/10/11 00:50:34;;;;;;;6.43;1.90;;;9.80;99.90;;;;;;5062081;28;20196;-61
2022/10/11 00:53:06;;;;;;;8.30;1.90;;;9.80;99.90;;;;;;5042517;28;20213;-62
2022/10/11 00:55:39;;;;;;;13.63;2.53;;;9.80;99.90;;;;;;5064336;28;20732;-62
2022/10/11 00:58:06;;;;;;;4.80;2.13;;;9.80;99.90;;;;;;5033574;28;20214;-62
2022/10/11 01:00:33;;;;;;;17.20;2.05;;;9.70;99.90;;;;;;5066319;28;20224;-62
2022/10/11 01:03:01;;;;;;;10.80;2.10;;;9.70;99.90;;;;;;5047827;28;20231;-62
2022/10/11 01:05:28;;;;;;;5.50;1.95;;;9.80;99.90;;;;;;5066209;28;20217;-63
2022/10/11 01:07:55;;;;;;;7.45;2.00;;;9.70;99.90;;;;;;5060883;28;20235;-62
2022/10/11 01:10:23;;;;;;;16.80;2.20;;;9.70;99.90;;;;;;5053734;28;20200;-63
2022/10/11 01:13:00;;;;;;;14.40;2.80;;;9.60;99.90;;;;;;5029047;28;20702;-62
2022/10/11 01:15:34;;;;;;;6.85;1.83;;;9.60;99.90;;;;;;5065089;28;20224;-62
2022/10/11 01:18:10;;;;;;;6.78;1.67;;;9.60;99.90;;;;;;5052758;28;20202;-63
2022/10/11 01:20:45;;;;;;;15.77;1.98;;;9.60;99.90;;;;;;5062168;28;20211;-62
2022/10/11 01:23:45;;;;;;;8.18;2.25;;;9.70;99.90;;;;;;5057890;28;21181;-61
2022/10/11 01:26:41;;;;;;;10.43;2.33;;;9.70;99.90;;;;;;5054539;28;20212;-63
2022/10/11 01:29:16;;;;;;;7.18;2.35;;;9.60;99.90;;;;;;5025193;28;20207;-62
2022/10/11 01:31:51;;;;;;;9.68;2.05;;;9.60;99.90;;;;;;5044815;28;20203;-62
2022/10/11 01:34:38;;;;;;;7.35;2.13;;;9.60;99.90;;;;;;5051991;28;20782;-62
2022/10/11 01:37:11;;;;;;;10.37;2.40;;;9.60;99.90;;;;;;5067615;28;20235;-62
2022/10/11 01:39:43;;;;;;;4.25;1.55;;;9.60;99.90;;;;;;5047511;28;20237;-62
2022/10/11 01:42:12;;;;;;;6.70;1.90;;;9.50;99.90;;;;;;5065237;28;20223;-62
2022/10/11 01:44:41;;;;;;;11.73;2.05;;;9.50;99.90;;;;;;5026590;28;20200;-62
2022/10/11 01:47:09;;;;;;;7.10;2.00;;;9.60;99.90;;;;;;5056728;28;20219;-62
2022/10/11 01:49:36;;;;;;;11.77;2.67;;;9.60;99.90;;;;;;5043279;28;20220;-62
2022/10/11 01:52:06;;;;;;;10.37;1.83;;;9.60;99.90;;;;;;5068192;28;20200;-62
2022/10/11 01:54:45;;;;;;;13.98;2.28;;;9.60;99.90;;;;;;5052967;28;20227;-62
2022/10/11 01:57:43;;;;;;;9.77;2.30;;;9.60;99.90;;;;;;5059763;28;20228;-62
2022/10/11 02:00:14;;;;;;;6.30;2.03;;;9.50;99.90;;;;;;5024110;28;20220;-62
2022/10/11 02:02:57;;;;;;;12.23;2.03;;;9.50;99.90;;;;;;5050319;28;20246;-62
2022/10/11 02:05:30;;;;;;;6.40;2.13;;;9.50;99.90;;;;;;5050109;28;20550;-62
2022/10/11 02:08:05;;;;;;;8.63;1.98;;;9.50;99.90;;;;;;5065348;28;20228;-62
2022/10/11 02:10:37;;;;;;;12.80;2.30;;;9.50;99.90;;;;;;5056456;28;20199;-62
2022/10/11 02:13:09;;;;;;;9.32;2.15;;;9.40;99.90;;;;;;5034738;28;20211;-62
2022/10/11 02:15:39;;;;;;;7.97;1.80;;;9.40;99.90;;;;;;5037638;28;20207;-61
2022/10/11 02:18:11;;;;;;;8.83;2.43;;;9.40;99.90;;;;;;5054044;28;20204;-62
2022/10/11 02:20:41;;;;;;;20.33;3.30;;;9.40;99.90;;;;;;5055861;28;20860;-62
2022/10/11 02:23:11;;;;;;;6.68;1.90;;;9.40;99.90;;;;;;5055157;28;20211;-62
2022/10/11 02:25:40;;;;;;;9.27;2.30;;;9.30;99.90;;;;;;5063772;28;20192;-62
2022/10/11 02:28:11;;;;;;;9.80;2.27;;;9.30;99.90;;;;;;5057306;28;20214;-63
2022/10/11 02:30:40;;;;;;;5.63;1.97;;;9.30;99.90;;;;;;5030568;28;20204;-62
2022/10/11 02:33:13;;;;;;;9.97;2.30;;;9.30;99.90;;;;;;5050355;28;20686;-61
2022/10/11 02:35:45;;;;;;;8.87;1.90;;;9.30;99.90;;;;;;5053649;28;20196;-62
2022/10/11 02:38:19;;;;;;;11.75;2.13;;;9.20;99.90;;;;;;5048702;28;20204;-62
2022/10/11 02:40:50;;;;;;;10.90;2.53;;;9.20;99.90;;;;;;5062313;28;20207;-62
2022/10/11 02:43:22;;;;;;;8.57;1.93;;;9.10;99.90;;;;;;5058031;28;20211;-62
2022/10/11 02:45:53;;;;;;;7.40;2.20;;;9.20;99.90;;;;;;5037525;28;20342;-62
2022/10/11 02:48:23;;;;;;;10.88;2.30;;;9.20;99.90;;;;;;5054856;28;20200;-62
2022/10/11 02:50:51;;;;;;;8.20;2.10;;;9.20;99.90;;;;;;5052767;28;20202;-62
2022/10/11 02:53:18;;;;;;;9.52;2.47;;;9.10;99.90;;;;;;5053979;28;20200;-62
2022/10/11 02:55:45;;;;;;;6.13;1.80;;;9.10;99.90;;;;;;5059907;28;20204;-62
2022/10/11 02:58:11;;;;;;;4.60;1.80;;;9.10;99.90;;;;;;5034666;28;20200;-63
2022/10/11 03:00:39;;;;;;;8.45;2.28;;;9.10;99.90;;;;;;5049026;28;20192;-62
2022/10/11 03:03:05;;;;;;;9.50;2.10;;;9.10;99.90;;;;;;5051228;28;20243;-61
2022/10/11 03:05:39;;;;;;;10.57;2.22;;;9.00;99.90;;;;;;5040791;28;20215;-62
2022/10/11 03:08:06;;;;;;;9.25;2.00;;;9.00;99.90;;;;;;5038883;28;20208;-62
2022/10/11 03:10:34;;;;;;;5.17;2.03;;;9.00;99.90;;;;;;5061586;28;20743;-61
2022/10/11 03:13:01;;;;;;;4.63;2.00;;;9.00;99.90;;;;;;5047783;28;20235;-62
2022/10/11 03:15:28;;;;;;;6.27;2.13;;;9.00;99.90;;;;;;5048610;28;20801;-61
2022/10/11 03:17:55;;;;;;;7.87;1.70;;;9.00;99.90;;;;;;5026304;28;20219;-62
2022/10/11 03:20:22;;;;;;;15.57;2.60;;;9.00;99.90;;;;;;5043778;28;20208;-62
2022/10/11 03:22:50;;;;;;;11.27;2.43;;;9.00;99.90;;;;;;5049269;28;20208;-62
2022/10/11 03:25:18;;;;;;;8.23;1.92;;;9.00;99.90;;;;;;5040695;28;20207;-62
2022/10/11 03:27:44;;;;;;;7.20;1.95;;;9.00;99.90;;;;;;5045710;28;20211;-62
2022/10/11 03:30:12;;;;;;;7.80;1.90;;;9.00;99.90;;;;;;5048347;28;20204;-62
2022/10/11 03:32:39;;;;;;;7.53;2.00;;;9.00;99.90;;;;;;5013291;28;20231;-62
2022/10/11 03:35:07;;;;;;;7.90;2.40;;;9.00;99.90;;;;;;5060758;28;20204;-62
2022/10/11 03:37:34;;;;;;;7.70;2.00;;;9.00;99.90;;;;;;5059304;28;20234;-62
2022/10/11 03:40:02;;;;;;;10.23;2.17;;;8.90;99.90;;;;;;5028457;28;20291;-62
2022/10/11 03:42:29;;;;;;;6.13;1.73;;;8.90;99.90;;;;;;5029746;28;20196;-62
2022/10/11 03:44:58;;;;;;;11.00;1.90;;;8.80;99.90;;;;;;5042364;28;20200;-61
2022/10/11 03:47:25;;;;;;;5.50;1.80;;;8.80;99.90;;;;;;5021541;28;21753;-62
2022/10/11 03:49:52;;;;;;;7.10;1.73;;;8.90;99.90;;;;;;5061103;28;21001;-62
2022/10/11 03:52:18;;;;;;;5.28;1.83;;;8.80;99.90;;;;;;5044650;28;20698;-61
2022/10/11 03:54:45;;;;;;;8.87;2.30;;;8.80;99.90;;;;;;5015459;28;20243;-62
2022/10/11 03:57:14;;;;;;;7.03;1.90;;;8.80;99.90;;;;;;5044502;28;20236;-61
2022/10/11 03:59:40;;;;;;;6.80;2.43;;;8.80;99.90;;;;;;5028058;28;20265;-61
2022/10/11 04:02:07;;;;;;;6.87;2.10;;;8.80;99.90;;;;;;5042335;28;20262;-62
2022/10/11 04:04:34;;;;;;;8.57;1.90;;;8.80;99.90;;;;;;4995611;28;20228;-62
2022/10/11 04:07:01;;;;;;;9.23;1.90;;;8.70;99.90;;;;;;5005848;28;20668;-62
2022/10/11 04:09:28;;;;;;;6.37;1.50;;;8.70;99.90;;;;;;5051679;28;20196;-62
2022/10/11 04:11:55;;;;;;;7.10;2.20;;;8.80;99.90;;;;;;5017440;28;20200;-62
2022/10/11 04:14:23;;;;;;;10.90;2.77;;;8.80;99.90;;;;;;5027092;28;20219;-62
2022/10/11 04:16:50;;;;;;;8.03;1.87;;;8.80;99.90;;;;;;5041988;28;20223;-62
2022/10/11 04:19:16;;;;;;;12.13;2.05;;;8.80;99.90;;;;;;5006027;28;20945;-62
2022/10/11 04:21:43;;;;;;;7.70;2.33;;;8.80;99.90;;;;;;5050088;28;20219;-62
2022/10/11 04:24:11;;;;;;;8.93;2.00;;;8.80;99.90;;;;;;5029594;28;20272;-61
2022/10/11 04:26:38;;;;;;;4.17;2.10;;;8.80;99.90;;;;;;5037835;28;20254;-62
2022/10/11 04:29:05;;;;;;;4.87;1.83;;;8.80;99.90;;;;;;5042877;28;20693;-61
2022/10/11 04:31:33;;;;;;;5.17;2.00;;;8.80;99.90;;;;;;5048874;28;21326;-62
2022/10/11 04:34:00;;;;;;;8.43;2.07;;;8.90;99.90;;;;;;5031888;28;20223;-61
2022/10/11 04:36:27;;;;;;;9.77;2.10;;;8.80;99.90;;;;;;5017737;28;21028;-61
2022/10/11 04:38:55;;;;;;;6.53;1.93;;;8.80;99.90;;;;;;5009580;28;20252;-62
2022/10/11 04:41:22;;;;;;;7.40;1.90;;;8.80;99.90;;;;;;5015903;28;20783;-61
2022/10/11 04:43:49;;;;;;;5.30;1.83;;;8.80;99.90;;;;;;5039714;28;20315;-61
2022/10/11 04:46:16;;;;;;;10.63;2.00;;;8.80;99.90;;;;;;5030333;28;20216;-60
2022/10/11 04:48:44;;;;;;;6.32;1.60;;;8.80;99.90;;;;;;5042202;28;20231;-62
2022/10/11 04:51:11;;;;;;;5.57;1.87;;;8.80;99.90;;;;;;5014859;28;20994;-62
2022/10/11 04:53:37;;;;;;;12.50;2.45;;;8.80;99.90;;;;;;5045525;28;20231;-62
2022/10/11 04:56:09;;;;;;;8.57;1.90;;;8.80;99.90;;;;;;5039654;28;20196;-61
2022/10/11 04:58:37;;;;;;;6.93;2.77;;;8.80;99.90;;;;;;5033344;28;20721;-62
2022/10/11 05:01:04;;;;;;;5.47;1.60;;;8.90;99.90;;;;;;5052131;28;20242;-62
2022/10/11 05:03:31;;;;;;;6.60;1.77;;;8.80;99.90;;;;;;5016952;28;20236;-61
2022/10/11 05:05:59;;;;;;;7.50;1.77;;;8.80;99.90;;;;;;5022559;28;20234;-61
2022/10/11 05:08:27;;;;;;;9.07;1.67;;;8.80;99.90;;;;;;5054111;28;20207;-62
2022/10/11 05:10:56;;;;;;;6.33;2.30;;;8.80;99.90;;;;;;5070083;28;20200;-62
2022/10/11 05:13:23;;;;;;;3.50;1.40;;;8.80;99.90;;;;;;5039450;28;20208;-62
2022/10/11 05:15:50;;;;;;;7.13;2.13;;;8.80;99.90;;;;;;5071116;28;20195;-62
2022/10/11 05:18:17;;;;;;;7.90;3.00;;;8.70;99.90;;;;;;5065296;28;20542;-61
2022/10/11 05:20:43;;;;;;;7.73;2.10;;;8.70;99.90;;;;;;5037798;28;20207;-61
2022/10/11 05:23:12;;;;;;;7.60;2.27;;;8.60;99.90;;;;;;5065397;28;20199;-61
2022/10/11 05:25:39;;;;;;;6.13;2.10;;;8.50;99.90;;;;;;5068939;28;20192;-61
2022/10/11 05:28:06;;;;;;;6.77;2.13;;;8.50;99.90;;;;;;5036538;28;20235;-61
2022/10/11 05:30:33;;;;;;;9.47;2.83;;;8.60;99.90;;;;;;5046469;28;20318;-61
2022/10/11 05:33:00;;;;;;;11.37;2.30;;;8.60;99.90;;;;;;5070047;28;20216;-61
2022/10/11 05:35:26;;;;;;;4.67;1.73;;;8.60;99.90;;;;;;5035238;28;26675;-61
2022/10/11 05:37:53;;;;;;;7.33;2.13;;;8.60;99.90;;;;;;5063335;28;20236;-61
2022/10/11 05:40:21;;;;;;;5.53;1.93;;;8.60;99.90;;;;;;5063434;28;20192;-62
2022/10/11 05:42:48;;;;;;;6.67;1.70;;;8.60;99.90;;;;;;5047919;28;20677;-62
2022/10/11 05:45:15;;;;;;;6.20;2.20;;;8.60;99.90;;;;;;5050176;28;20886;-62
2022/10/11 05:47:42;;;;;;;10.70;2.07;;;8.60;99.90;;;;;;5065916;28;20223;-61
2022/10/11 05:50:09;;;;;;;7.53;2.20;;;8.60;99.90;;;;;;5048743;28;20199;-62
2022/10/11 05:52:36;;;;;;;7.83;2.60;;;8.40;99.90;;;;;;5053276;28;20205;-62
2022/10/11 05:55:03;;;;;;;11.53;2.33;;;8.50;99.90;;;;;;5064696;28;20207;-61
2022/10/11 05:57:32;;;;;;;5.90;1.70;;;8.50;99.90;;;;;;5041557;28;21043;-62
2022/10/11 05:59:59;;;;;;;9.20;2.50;;;8.50;99.90;;;;;;5051460;28;20204;-61
2022/10/11 06:02:25;;;;;;;7.33;1.90;;;8.50;99.90;;;;;;5052099;28;20409;-62
2022/10/11 06:04:52;;;;;;;8.40;2.70;;;8.50;99.90;;;;;;5054456;28;20227;-62
2022/10/11 06:07:19;;;;;;;7.03;2.43;;;8.50;99.90;;;;;;5036507;28;21186;-62
2022/10/11 06:09:46;;;;;;;8.00;2.03;;;8.40;99.90;;;;;;5061483;28;20200;-62
2022/10/11 06:12:13;;;;;;;8.60;1.90;;;8.50;99.90;;;;;;5050999;28;20216;-63
2022/10/11 06:14:41;;;;;;;9.20;1.60;;;8.50;99.90;;;;;;5063182;28;20647;-62
2022/10/11 06:17:08;;;;;;;4.67;1.97;;;8.50;99.90;;;;;;5056176;28;20248;-62
2022/10/11 06:19:34;;;;;;;12.60;1.90;;;8.60;99.90;;;;;;5042248;28;20694;-62
2022/10/11 06:22:01;;;;;;;4.40;1.70;;;8.60;99.90;;;;;;5032752;28;21117;-62
2022/10/11 06:24:28;;;;;;;4.77;1.67;;;8.60;99.90;;;;;;5066769;28;20208;-62
2022/10/11 06:26:55;;;;;;;6.57;2.00;;;8.60;99.90;;;;;;5064710;28;20889;-61
2022/10/11 06:29:22;;;;;;;7.07;2.03;;;8.60;99.90;;;;;;5040115;28;20243;-61
2022/10/11 06:31:50;;;;;;;6.70;2.23;;;8.60;99.90;;;;;;5057363;28;20245;-61
2022/10/11 06:34:17;;;;;;;8.43;1.73;;;8.70;99.90;;;;;;5053326;28;20200;-61
2022/10/11 06:36:44;;;;;;;11.80;2.03;;;8.70;99.90;;;;;;5051047;28;20209;-61
2022/10/11 06:39:10;;;;;;;6.17;2.13;;;8.70;99.90;;;;;;5031819;28;21007;-61
2022/10/11 06:41:37;;;;;;;3.90;1.90;;;8.70;99.90;;;;;;5067221;28;20572;-61
2022/10/11 06:44:04;;;;;;;6.80;1.93;;;8.70;99.90;;;;;;5038194;28;20215;-61
2022/10/11 06:46:31;;;;;;;4.60;2.00;;;8.80;99.90;;;;;;5066855;28;20192;-61
2022/10/11 06:48:59;;;;;;;7.97;2.20;;;8.80;99.90;;;;;;5051862;28;20735;-62
2022/10/11 06:51:28;;;;;;;10.13;2.37;;;8.80;99.90;;;;;;5047856;28;20211;-61
2022/10/11 06:53:57;;;;;;;7.00;1.95;;;8.90;99.90;;;;;;5017037;28;21365;-61
2022/10/11 06:56:25;;;;;;;7.40;2.30;;;8.90;99.90;;;;;;5043698;28;20208;-61
2022/10/11 06:58:53;;;;;;;5.50;2.10;;;8.90;99.90;;;;;;5047448;28;20732;-61
2022/10/11 07:01:22;;;;;;;6.87;1.90;;;8.90;99.90;;;;;;5049430;28;20210;-61
2022/10/11 07:03:50;;;;;;;8.17;1.97;;;8.90;99.90;;;;;;5049792;28;20210;-61
2022/10/11 07:06:20;;;;;;;17.17;2.50;;;9.00;99.90;;;;;;5048502;28;20200;-61
2022/10/11 07:08:47;;;;;;;10.53;2.73;;;9.00;99.90;;;;;;5061750;28;20987;-61
2022/10/11 07:11:16;;;;;;;6.80;2.13;;;9.00;99.90;;;;;;5028368;28;20803;-62
2022/10/11 07:13:48;;;;;;;5.67;2.07;;;9.00;99.90;;;;;;5060874;28;20201;-61
2022/10/11 07:16:15;;;;;;;10.57;2.27;;;9.00;99.90;;;;;;5038085;28;20211;-61
2022/10/11 07:18:41;;;;;;;8.93;2.30;;;9.10;99.90;;;;;;5044723;28;20250;-62
2022/10/11 07:21:11;;;;;;;9.90;2.17;;;9.10;99.90;;;;;;5046935;28;20674;-61
2022/10/11 07:23:39;;;;;;;11.93;2.20;;;9.10;99.90;;;;;;5054539;28;20203;-61
2022/10/11 07:26:07;;;;;;;8.00;2.90;;;9.10;99.90;;;;;;5024816;28;20200;-61
2022/10/11 07:28:35;;;;;;;8.00;1.87;;;9.10;99.90;;;;;;5063745;28;22275;-62
2022/10/11 07:31:05;;;;;;;7.43;2.30;;;9.10;99.90;;;;;;5051201;28;20207;-61
2022/10/11 07:33:32;;;;;;;10.73;2.40;;;9.00;99.90;;;;;;5060469;28;20203;-61
2022/10/11 07:35:59;;;;;;;12.37;2.77;;;9.10;99.90;;;;;;5051063;28;20232;-61
2022/10/11 07:38:26;;;;;;;7.80;2.83;;;9.10;99.90;;;;;;5047559;28;20744;-61
2022/10/11 07:40:54;;;;;;;14.80;2.77;;;9.20;99.90;;;;;;5034002;28;20232;-62
2022/10/11 07:43:21;;;;;;;11.30;2.43;;;9.20;99.90;;;;;;5053651;28;20654;-62
2022/10/11 07:45:53;;;;;;;13.52;2.03;;;9.30;99.90;;;;;;5043838;28;20228;-62
2022/10/11 07:48:20;;;;;;;11.70;2.77;;;9.30;99.90;;;;;;5059487;28;20225;-61
2022/10/11 07:50:47;;;;;;;6.43;2.00;;;9.30;99.90;;;;;;5050738;28;21226;-61
2022/10/11 07:53:13;;;;;;;7.33;2.30;;;9.40;99.90;;;;;;5052763;28;20696;-61
2022/10/11 07:55:41;;;;;;;13.73;1.77;;;9.40;99.90;;;;;;5029881;28;22027;-61
2022/10/11 07:58:10;;;;;;;7.70;2.08;;;9.50;99.90;;;;;;5049611;28;20227;-61
2022/10/11 08:00:38;;;;;;;7.97;1.95;;;9.50;99.90;;;;;;5042460;28;20204;-61
2022/10/11 08:03:06;;;;;;;10.55;2.70;;;9.60;99.90;;;;;;5061826;28;20250;-61
2022/10/11 08:05:33;;;;;;;3.80;2.00;;;9.60;99.90;;;;;;5046679;28;20858;-61
2022/10/11 08:08:00;;;;;;;6.97;2.10;;;9.60;99.90;;;;;;5055357;28;20232;-61
2022/10/11 08:10:27;;;;;;;6.50;1.90;;;9.60;99.90;;;;;;5061339;28;20223;-61
2022/10/11 08:12:54;;;;;;;7.75;2.60;;;9.70;99.90;;;;;;5011054;28;20238;-62
2022/10/11 08:15:22;;;;;;;17.55;2.83;;;9.70;99.90;;;;;;5058581;28;20200;-61
2022/10/11 08:17:49;;;;;;;13.05;2.70;;;9.80;99.90;;;;;;5025639;28;20224;-61
2022/10/11 08:20:16;;;;;;;11.07;2.42;;;9.80;99.90;;;;;;5057519;28;20298;-62
2022/10/11 08:22:42;;;;;;;6.18;1.63;;;9.90;99.90;;;;;;5030232;28;20203;-62
2022/10/11 08:25:09;;;;;;;9.55;2.35;;;9.90;99.90;;;;;;5059386;28;25552;-61
2022/10/11 08:27:36;;;;;;;8.25;1.90;;;9.90;99.90;;;;;;5031248;28;20213;-61
2022/10/11 08:30:04;;;;;;;4.22;1.98;;;9.90;99.90;;;;;;5061276;28;20219;-61
2022/10/11 08:32:32;;;;;;;9.70;2.75;;;10.00;99.90;;;;;;5048114;28;20199;-61
2022/10/11 08:34:59;;;;;;;15.73;2.53;;;10.00;99.90;;;;;;5062522;28;20200;-62
2022/10/11 08:37:27;;;;;;;7.03;2.22;;;10.10;99.90;;;;;;5046571;28;21776;-61
2022/10/11 08:39:53;;;;;;;2.65;1.70;;;10.10;99.90;;;;;;5064027;28;20668;-61
2022/10/11 08:42:28;;;;;;;7.63;2.25;;;10.20;99.90;;;;;;5035325;28;20200;-61
2022/10/11 08:44:59;;;;;;;5.45;2.10;;;10.20;99.90;;;;;;5048907;28;20203;-61
2022/10/11 08:47:32;;;;;;;11.90;2.50;;;10.20;99.90;;;;;;5070298;28;20199;-62
2022/10/11 08:50:01;;;;;;;9.82;2.95;;;10.30;99.90;;;;;;5040243;28;20212;-61
2022/10/11 08:52:32;;;;;;;8.27;1.85;;;10.30;99.90;;;;;;5057462;28;20205;-61
2022/10/11 08:55:05;;;;;;;10.75;1.90;;;10.30;99.90;;;;;;5066435;28;20192;-61
2022/10/11 08:57:36;;;;;;;9.38;2.75;;;10.40;99.90;;;;;;5068260;28;20590;-62
2022/10/11 09:00:05;;;;;;;11.40;2.50;;;10.50;99.90;;;;;;5050482;28;20203;-61
2022/10/11 09:02:45;;;;;;;14.25;2.88;;;10.60;99.90;;;;;;5064999;28;20370;-62
2022/10/11 09:05:16;;;;;;;12.85;2.78;;;10.60;99.90;;;;;;5065089;28;20307;-61
2022/10/11 09:07:54;;;;;;;8.85;2.38;;;10.70;99.90;;;;;;5051101;28;20220;-61
2022/10/11 09:10:44;;;;;;;12.38;2.35;;;10.70;99.90;;;;;;5067650;28;20203;-62
2022/10/11 09:13:29;;;;;;;15.70;2.47;;;10.80;99.90;;;;;;5038320;28;20822;-62
2022/10/11 09:16:06;;;;;;;9.20;2.45;;;10.90;99.90;;;;;;5068937;28;20913;-61
2022/10/11 09:18:47;;;;;;;7.72;1.85;;;10.90;99.90;;;;;;5049519;28;20227;-61
2022/10/11 09:21:29;;;;;;;9.73;2.30;;;11.00;99.90;;;;;;5068467;28;20566;-61
2022/10/11 09:24:27;;;;;;;10.20;1.70;;;11.10;99.90;;;;;;5038041;28;20226;-61
2022/10/11 09:26:58;;;;;;;5.55;1.88;;;11.20;99.90;;;;;;5050047;28;20652;-62
2022/10/11 09:29:39;;;;;;;8.38;2.00;;;11.30;99.90;;;;;;5035043;28;20273;-61
2022/10/11 09:32:14;;;;;;;11.95;2.38;;;11.40;99.90;;;;;;5052691;28;20200;-61
2022/10/11 09:34:41;;;;;;;12.55;2.78;;;11.50;99.90;;;;;;5051230;28;20199;-61
2022/10/11 09:37:19;;;;;;;13.65;2.42;;;11.50;99.90;;;;;;5063415;28;20196;-61
2022/10/11 09:39:50;;;;;;;13.15;2.17;;;11.60;99.90;;;;;;5052794;28;20605;-62
2022/10/11 09:42:17;;;;;;;12.52;2.20;;;11.70;99.90;;;;;;5053916;28;20196;-61
2022/10/11 09:44:48;;;;;;;10.85;2.22;;;11.70;99.90;;;;;;5033099;28;20208;-62
2022/10/11 09:47:17;;;;;;;9.25;2.13;;;11.80;99.90;;;;;;5049516;28;20196;-61
2022/10/11 09:49:49;;;;;;;10.82;1.83;;;11.80;99.90;;;;;;5023582;28;20208;-62
2022/10/11 09:52:19;;;;;;;11.60;2.00;;;11.80;99.90;;;;;;5051806;28;20192;-62
2022/10/11 09:54:48;;;;;;;5.40;1.98;;;11.80;99.90;;;;;;5044037;28;20574;-63
2022/10/11 09:57:20;;;;;;;9.68;2.50;;;11.80;99.90;;;;;;5046512;28;20428;-61
2022/10/11 09:59:59;;;;;;;11.00;2.25;;;11.90;99.90;;;;;;5031509;28;20236;-61
2022/10/11 10:02:26;;;;;;;10.02;2.08;;;11.90;99.90;;;;;;5027423;28;20320;-62
2022/10/11 10:05:14;;;;;;;10.85;2.22;;;12.00;99.90;;;;;;5037899;28;20232;-61
2022/10/11 10:07:59;;;;;;;12.00;2.10;;;12.00;99.90;;;;;;5060893;28;20308;-61
2022/10/11 10:10:30;;;;;;;10.40;2.38;;;12.10;99.90;;;;;;5044397;28;20232;-61
2022/10/11 10:12:59;;;;;;;11.55;2.10;;;12.20;99.90;;;;;;5064092;28;20212;-63
2022/10/11 10:15:28;;;;;;;8.30;1.98;;;12.20;99.90;;;;;;5027008;28;20255;-62
2022/10/11 10:17:56;;;;;;;8.38;2.75;;;12.30;99.90;;;;;;5045759;28;20281;-62
2022/10/11 10:20:25;;;;;;;9.73;1.80;;;12.30;99.90;;;;;;5038507;28;20242;-61
2022/10/11 10:22:53;;;;;;;6.78;1.52;;;12.30;99.90;;;;;;5043717;28;20242;-61
2022/10/11 10:25:24;;;;;;;9.52;2.13;;;12.40;99.90;;;;;;5049404;28;20224;-61
2022/10/11 10:27:59;;;;;;;6.57;1.70;;;12.50;99.90;;;;;;5039457;28;20342;-61
2022/10/11 10:30:26;;;;;;;14.80;2.20;;;12.50;99.90;;;;;;5029544;28;20215;-61
2022/10/11 10:32:58;;;;;;;10.32;2.85;;;12.60;99.90;;;;;;5036269;28;20691;-61
2022/10/11 10:35:36;;;;;;;10.70;2.17;;;12.60;99.90;;;;;;5034672;28;20204;-61
2022/10/11 10:38:12;;;;;;;13.50;2.08;;;12.70;99.90;;;;;;5044335;28;20689;-61
2022/10/11 10:40:45;;;;;;;13.90;2.25;;;12.70;99.90;;;;;;5059101;28;20216;-61
2022/10/11 10:43:16;;;;;;;9.25;2.00;;;12.70;99.90;;;;;;5055848;28;20209;-61
2022/10/11 10:46:07;;;;;;;12.15;2.33;;;12.90;99.90;;;;;;5032736;28;20211;-62
2022/10/11 10:48:39;;;;;;;8.60;1.95;;;12.90;99.90;;;;;;5043881;28;20204;-61
2022/10/11 10:51:17;;;;;;;5.75;1.58;;;12.90;99.90;;;;;;5047038;28;20224;-62
2022/10/11 10:53:51;;;;;;;10.70;2.00;;;13.00;99.90;;;;;;5064159;28;21000;-60
2022/10/11 10:56:23;;;;;;;7.68;1.73;;;13.00;99.90;;;;;;5048344;28;20219;-63
2022/10/11 10:59:03;;;;;;;14.65;2.45;;;13.00;99.90;;;;;;5038408;28;20220;-62
2022/10/11 11:01:33;;;;;;;8.95;2.10;;;13.10;99.90;;;;;;5022985;28;20207;-61
2022/10/11 11:04:10;;;;;;;10.75;2.45;;;13.10;99.90;;;;;;5045366;28;20209;-61
2022/10/11 11:06:43;;;;;;;8.13;2.03;;;13.10;99.90;;;;;;5033773;28;20978;-62
2022/10/11 11:09:29;;;;;;;9.30;1.70;;;13.10;99.90;;;;;;5046392;28;20267;-61
2022/10/11 11:12:06;;;;;;;7.68;2.00;;;13.10;99.90;;;;;;5012660;28;20208;-61
2022/10/11 11:14:43;;;;;;;8.15;1.70;;;13.10;99.90;;;;;;5036880;28;20966;-61
2022/10/11 11:17:22;;;;;;;8.48;1.55;;;13.20;99.90;;;;;;5023184;28;20235;-61
2022/10/11 11:20:00;;;;;;;5.28;1.80;;;13.30;99.90;;;;;;5029349;28;20319;-62
2022/10/11 11:22:37;;;;;;;7.95;1.80;;;13.30;99.90;;;;;;5011854;28;20843;-62
2022/10/11 11:25:14;;;;;;;8.98;1.70;;;13.40;99.90;;;;;;5045568;28;20211;-61
2022/10/11 11:27:53;;;;;;;8.07;1.73;;;13.40;99.90;;;;;;5033102;28;20895;-62
2022/10/11 11:30:22;;;;;;;7.30;1.73;;;13.40;99.90;;;;;;5038144;28;20227;-61
2022/10/11 11:33:00;;;;;;;8.45;1.67;;;13.30;99.90;;;;;;5022529;28;20216;-61
2022/10/11 11:35:30;;;;;;;11.10;2.08;;;13.30;99.90;;;;;;5026560;28;20203;-61
2022/10/11 11:38:02;;;;;;;6.43;1.95;;;13.30;99.90;;;;;;5042990;28;20814;-61
2022/10/11 11:40:34;;;;;;;7.32;1.55;;;13.40;99.90;;;;;;5016911;28;20835;-62
2022/10/11 11:43:07;;;;;;;10.43;1.58;;;13.50;99.90;;;;;;5034949;28;20220;-61
2022/10/11 11:45:51;;;;;;;9.57;1.60;;;13.50;99.90;;;;;;5036170;28;20961;-62
2022/10/11 11:48:20;;;;;;;7.20;1.38;;;13.60;99.90;;;;;;5005550;28;20542;-62
2022/10/11 11:50:54;;;;;;;12.48;2.00;;;13.50;99.90;;;;;;5026304;28;20924;-61
2022/10/11 11:53:31;;;;;;;10.38;2.25;;;13.50;99.90;;;;;;5042750;28;20216;-61
2022/10/11 11:56:06;;;;;;;7.22;1.30;;;13.50;99.90;;;;;;5023212;28;20239;-61
2022/10/11 11:58:41;;;;;;;8.82;1.80;;;13.60;99.90;;;;;;5030078;28;20219;-62
2022/10/11 12:01:24;;;;;;;8.48;1.77;;;13.70;99.90;;;;;;5032760;28;20227;-61
2022/10/11 12:03:55;;;;;;;8.27;1.77;;;13.70;99.90;;;;;;5016681;28;20600;-62
2022/10/11 12:06:26;;;;;;;14.27;2.28;;;13.70;99.90;;;;;;5011203;28;20242;-61
2022/10/11 12:09:02;;;;;;;8.68;2.33;;;13.80;99.90;;;;;;5025707;28;20868;-62
2022/10/11 12:11:41;;;;;;;8.43;1.75;;;13.80;99.90;;;;;;5013502;28;20208;-62
2022/10/11 12:14:35;;;;;;;3.42;1.45;;;13.80;99.90;;;;;;5034996;28;20223;-61
2022/10/11 12:17:14;;;;;;;4.75;1.90;;;13.90;99.90;;;;;;5052908;28;20195;-62
2022/10/11 12:19:57;;;;;;;6.85;1.67;;;13.90;99.90;;;;;;5011462;28;21884;-62
2022/10/11 12:22:50;;;;;;;13.75;2.20;;;13.90;99.90;;;;;;5031409;28;20842;-61
2022/10/11 12:25:39;;;;;;;11.73;1.75;;;13.90;99.90;;;;;;5032654;28;20220;-61
2022/10/11 12:28:39;;;;;;;8.02;1.75;;;13.80;99.90;;;;;;5026591;28;20212;-61
2022/10/11 12:31:23;;;;;;;10.20;1.98;;;13.80;99.90;;;;;;4973881;28;20215;-61
2022/10/11 12:33:54;;;;;;;7.85;1.75;;;13.80;99.90;;;;;;5045086;28;20218;-61
2022/10/11 12:36:37;;;;;;;6.43;1.73;;;13.70;99.90;;;;;;5008631;28;20984;-62
2022/10/11 12:39:50;;;;;;;4.80;2.28;;;13.80;99.90;;;;;;5047221;28;20220;-61
2022/10/11 12:42:27;;;;;;;3.17;1.52;;;13.80;99.90;;;;;;5030473;28;20208;-61
2022/10/11 12:45:32;;;;;;;2.80;1.13;;;13.90;99.90;;;;;;5032486;28;21076;-61
2022/10/11 12:48:18;;;;;;;6.15;1.38;;;13.80;99.90;;;;;;4974528;28;21675;-61
2022/10/11 12:50:55;;;;;;;7.10;1.60;;;13.80;99.90;;;;;;5011654;28;20422;-62
2022/10/11 12:53:38;;;;;;;11.95;2.10;;;13.80;99.90;;;;;;5030236;28;20232;-62
2022/10/11 12:56:11;;;;;;;9.02;1.80;;;13.80;99.90;;;;;;5052199;28;20199;-62
2022/10/11 12:58:40;;;;;;;9.05;2.00;;;13.80;99.90;;;;;;5014299;28;20727;-61
2022/10/11 13:01:22;;;;;;;3.90;1.38;;;13.80;99.90;;;;;;5036256;28;20557;-61
2022/10/11 13:03:59;;;;;;;3.28;1.27;;;13.90;99.90;;;;;;5038427;28;20220;-61
2022/10/11 13:06:29;;;;;;;7.25;1.70;;;14.00;99.90;;;;;;5035371;28;20212;-61
2022/10/11 13:09:01;;;;;;;7.20;1.50;;;14.00;99.90;;;;;;5031356;28;20226;-61
2022/10/11 13:11:31;;;;;;;5.80;1.40;;;14.10;99.90;;;;;;5051832;28;20203;-61